createdAt,value
2023-02-25T00:02:04.437Z,16.53
2023-02-25T00:04:31.392Z,18.67
2023-02-25T00:06:57.902Z,16.70
2023-02-25T00:09:24.316Z,18.37
2023-02-25T00:11:50.813Z,20.50
2023-02-25T00:14:17.201Z,21.53
2023-02-25T00:16:43.649Z,16.90
2023-02-25T00:19:10.537Z,15.80
2023-02-25T00:21:38.057Z,17.43
2023-02-25T00:24:15.975Z,17.40
2023-02-25T00:26:43.653Z,18.07
2023-02-25T00:29:10.176Z,12.60
2023-02-25T00:31:36.682Z,24.13
2023-02-25T00:34:03.453Z,17.37
2023-02-25T00:36:32.132Z,23.00
2023-02-25T00:38:58.600Z,14.33
2023-02-25T00:41:28.197Z,13.50
2023-02-25T00:43:57.649Z,17.50
2023-02-25T00:46:24.700Z,21.73
2023-02-25T00:48:52.348Z,22.23
2023-02-25T00:51:21.821Z,19.10
2023-02-25T00:53:50.051Z,15.17
2023-02-25T00:56:17.849Z,20.73
2023-02-25T00:58:46.420Z,19.27
2023-02-25T01:01:23.823Z,21.60
2023-02-25T01:03:52.011Z,16.67
2023-02-25T01:06:18.857Z,20.97
2023-02-25T01:08:45.452Z,13.13
2023-02-25T01:11:27.460Z,25.33
2023-02-25T01:13:55.516Z,23.67
2023-02-25T01:16:24.887Z,22.93
2023-02-25T01:18:53.454Z,23.80
2023-02-25T01:21:42.727Z,16.70
2023-02-25T01:24:17.347Z,18.23
2023-02-25T01:26:45.529Z,14.77
2023-02-25T01:29:40.279Z,14.10
2023-02-25T01:32:11.952Z,16.63
2023-02-25T01:34:39.926Z,15.00
2023-02-25T01:37:08.150Z,14.07
2023-02-25T01:39:40.156Z,19.33
2023-02-25T01:42:14.369Z,13.87
2023-02-25T01:45:09.101Z,17.90
2023-02-25T01:47:39.264Z,18.77
2023-02-25T01:50:07.136Z,16.47
2023-02-25T01:52:33.830Z,11.87
2023-02-25T01:55:00.275Z,14.33
2023-02-25T01:57:28.052Z,21.50
2023-02-25T01:59:55.219Z,15.13
2023-02-25T02:02:26.089Z,12.97
2023-02-25T02:04:54.395Z,15.70
2023-02-25T02:07:23.269Z,13.37
2023-02-25T02:09:59.848Z,13.10
2023-02-25T02:12:31.352Z,12.10
2023-02-25T02:15:00.055Z,12.57
2023-02-25T02:17:37.903Z,13.47
2023-02-25T02:20:23.090Z,12.37
2023-02-25T02:23:04.931Z,12.40
2023-02-25T02:25:52.953Z,11.07
2023-02-25T02:28:50.657Z,11.43
2023-02-25T02:31:20.251Z,12.40
2023-02-25T02:34:16.651Z,12.47
2023-02-25T02:37:18.567Z,13.70
2023-02-25T02:40:14.262Z,6.00
2023-02-25T02:43:08.666Z,9.20
2023-02-25T02:45:55.530Z,7.60
2023-02-25T02:48:27.850Z,14.30
2023-02-25T02:50:59.899Z,9.73
2023-02-25T02:53:36.624Z,21.00
2023-02-25T02:56:07.291Z,14.63
2023-02-25T02:58:45.819Z,12.23
2023-02-25T03:01:16.046Z,12.87
2023-02-25T03:03:48.736Z,9.17
2023-02-25T03:06:19.855Z,11.10
2023-02-25T03:08:56.727Z,13.33
2023-02-25T03:11:23.556Z,8.53
2023-02-25T03:13:51.858Z,10.67
2023-02-25T03:16:31.870Z,11.77
2023-02-25T03:19:12.298Z,11.23
2023-02-25T03:21:43.663Z,9.93
2023-02-25T03:24:22.231Z,6.13
2023-02-25T03:26:51.555Z,9.63
2023-02-25T03:29:21.925Z,9.17
2023-02-25T03:31:56.927Z,9.30
2023-02-25T03:34:35.989Z,9.30
2023-02-25T03:37:09.279Z,9.80
2023-02-25T03:39:40.953Z,12.33
2023-02-25T03:42:14.074Z,10.70
2023-02-25T03:44:50.079Z,5.80
2023-02-25T03:47:19.367Z,7.17
2023-02-25T03:50:05.099Z,7.83
2023-02-25T03:52:32.302Z,10.50
2023-02-25T03:55:05.906Z,10.33
2023-02-25T03:57:41.211Z,8.87
2023-02-25T04:00:19.145Z,9.97
2023-02-25T04:02:46.888Z,7.77
2023-02-25T04:05:14.697Z,7.77
2023-02-25T04:07:41.397Z,9.57
2023-02-25T04:10:09.681Z,8.40
2023-02-25T04:12:36.111Z,8.00
2023-02-25T04:15:04.008Z,6.80
2023-02-25T04:17:30.523Z,10.73
2023-02-25T04:19:57.033Z,12.80
2023-02-25T04:22:24.120Z,13.00
2023-02-25T04:24:50.569Z,9.90
2023-02-25T04:27:17.324Z,10.53
2023-02-25T04:29:44.520Z,11.07
2023-02-25T04:32:12.001Z,10.93
2023-02-25T04:34:38.494Z,15.03
2023-02-25T04:37:05.277Z,10.57
2023-02-25T04:39:32.958Z,8.03
2023-02-25T04:41:59.372Z,8.23
2023-02-25T04:44:26.140Z,13.97
2023-02-25T04:46:52.602Z,9.27
2023-02-25T04:49:21.364Z,8.03
2023-02-25T04:51:49.463Z,8.43
2023-02-25T04:54:15.906Z,7.33
2023-02-25T04:56:42.291Z,14.17
2023-02-25T04:59:11.256Z,9.77
2023-02-25T05:01:38.569Z,12.17
2023-02-25T05:04:05.331Z,9.80
2023-02-25T05:06:32.005Z,6.27
2023-02-25T05:08:58.849Z,8.30
2023-02-25T05:11:27.358Z,6.80
2023-02-25T05:13:57.067Z,12.63
2023-02-25T05:16:24.144Z,11.53
2023-02-25T05:18:50.769Z,10.70
2023-02-25T05:21:20.999Z,5.47
2023-02-25T05:23:49.115Z,8.83
2023-02-25T05:26:18.115Z,5.43
2023-02-25T05:28:44.581Z,13.83
2023-02-25T05:31:12.608Z,8.70
2023-02-25T05:33:40.053Z,6.07
2023-02-25T05:36:08.203Z,7.07
2023-02-25T05:38:35.275Z,7.40
2023-02-25T05:41:05.909Z,7.53
2023-02-25T05:43:33.012Z,7.53
2023-02-25T05:46:03.136Z,5.17
2023-02-25T05:48:31.659Z,5.23
2023-02-25T05:51:12.997Z,6.60
2023-02-25T05:53:39.742Z,8.67
2023-02-25T05:56:08.320Z,5.43
2023-02-25T05:58:35.331Z,6.10
2023-02-25T06:01:16.859Z,5.73
2023-02-25T06:03:45.282Z,7.43
2023-02-25T06:06:14.755Z,11.37
2023-02-25T06:08:44.167Z,6.60
2023-02-25T06:11:14.231Z,6.83
2023-02-25T06:13:41.888Z,5.73
2023-02-25T06:16:08.433Z,4.07
2023-02-25T06:18:37.077Z,8.77
2023-02-25T06:21:09.770Z,4.83
2023-02-25T06:23:38.433Z,5.57
2023-02-25T06:26:07.763Z,5.53
2023-02-25T06:28:38.126Z,5.93
2023-02-25T06:31:08.758Z,2.40
2023-02-25T06:33:35.698Z,2.13
2023-02-25T06:36:02.649Z,5.37
2023-02-25T06:38:29.207Z,6.67
2023-02-25T06:40:55.730Z,4.93
2023-02-25T06:43:22.150Z,5.07
2023-02-25T06:45:48.641Z,3.27
2023-02-25T06:48:15.083Z,2.30
2023-02-25T06:50:41.885Z,5.50
2023-02-25T06:53:09.471Z,3.97
2023-02-25T06:55:39.169Z,1.77
2023-02-25T06:58:05.845Z,4.23
2023-02-25T07:00:33.208Z,3.57
2023-02-25T07:03:02.951Z,4.60
2023-02-25T07:05:29.461Z,2.93
2023-02-25T07:07:55.866Z,4.03
2023-02-25T07:10:22.285Z,3.57
2023-02-25T07:12:48.686Z,4.83
2023-02-25T07:15:15.191Z,4.87
2023-02-25T07:17:41.775Z,4.43
2023-02-25T07:20:08.897Z,5.10
2023-02-25T07:22:35.366Z,5.23
2023-02-25T07:25:02.230Z,5.20
2023-02-25T07:27:28.833Z,4.40
2023-02-25T07:29:55.755Z,4.93
2023-02-25T07:32:24.780Z,3.67
2023-02-25T07:34:51.392Z,4.43
2023-02-25T07:37:17.816Z,3.40
2023-02-25T07:39:45.723Z,5.07
2023-02-25T07:42:13.807Z,3.53
2023-02-25T07:44:40.297Z,4.30
2023-02-25T07:47:06.968Z,4.20
2023-02-25T07:49:33.531Z,5.60
2023-02-25T07:52:00.694Z,4.43
2023-02-25T07:54:27.206Z,4.60
2023-02-25T07:56:53.838Z,3.30
2023-02-25T07:59:20.319Z,4.60
2023-02-25T08:01:46.890Z,2.73
2023-02-25T08:04:13.419Z,3.17
2023-02-25T08:06:41.240Z,3.07
2023-02-25T08:09:11.044Z,3.53
2023-02-25T08:11:38.570Z,4.77
2023-02-25T08:14:06.006Z,3.53
2023-02-25T08:16:33.642Z,5.90
2023-02-25T08:19:00.287Z,2.87
2023-02-25T08:21:30.740Z,4.47
2023-02-25T08:23:57.215Z,3.17
2023-02-25T08:26:25.482Z,2.57
2023-02-25T08:28:51.917Z,3.10
2023-02-25T08:31:19.738Z,5.13
2023-02-25T08:33:49.541Z,6.03
2023-02-25T08:36:24.809Z,3.93
2023-02-25T08:38:51.630Z,2.47
2023-02-25T08:41:19.857Z,3.30
2023-02-25T08:43:54.658Z,5.20
2023-02-25T08:46:27.217Z,1.93
2023-02-25T08:48:54.658Z,3.93
2023-02-25T08:51:34.048Z,2.60
2023-02-25T08:54:06.602Z,4.73
2023-02-25T08:56:35.265Z,3.10
2023-02-25T08:59:02.005Z,4.60
2023-02-25T09:01:44.344Z,2.33
2023-02-25T09:04:22.862Z,2.83
2023-02-25T09:06:51.853Z,3.87
2023-02-25T09:09:20.140Z,2.60
2023-02-25T09:11:48.672Z,3.47
2023-02-25T09:14:15.200Z,4.33
2023-02-25T09:16:41.601Z,5.57
2023-02-25T09:19:08.175Z,2.87
2023-02-25T09:21:36.117Z,2.37
2023-02-25T09:24:03.068Z,3.67
2023-02-25T09:26:29.578Z,4.50
2023-02-25T09:28:56.002Z,2.83
2023-02-25T09:31:22.981Z,2.80
2023-02-25T09:33:49.706Z,3.73
2023-02-25T09:36:18.753Z,5.67
2023-02-25T09:38:46.867Z,2.73
2023-02-25T09:41:39.621Z,5.07
2023-02-25T09:44:15.441Z,4.63
2023-02-25T09:46:57.050Z,5.90
2023-02-25T09:49:48.081Z,2.33
2023-02-25T09:52:39.771Z,2.70
2023-02-25T09:55:08.156Z,5.20
2023-02-25T09:57:41.429Z,5.57
2023-02-25T10:00:18.591Z,3.43
2023-02-25T10:03:03.566Z,3.10
2023-02-25T10:05:52.816Z,4.57
2023-02-25T10:08:28.757Z,2.60
2023-02-25T10:11:13.672Z,3.33
2023-02-25T10:14:00.364Z,3.33
2023-02-25T10:16:54.752Z,2.03
2023-02-25T10:19:34.344Z,2.53
2023-02-25T10:22:26.014Z,2.33
2023-02-25T10:25:00.671Z,3.23
2023-02-25T10:27:41.397Z,5.00
2023-02-25T10:30:44.713Z,3.40
2023-02-25T10:33:18.325Z,2.67
2023-02-25T10:35:44.750Z,4.23
2023-02-25T10:38:12.707Z,4.43
2023-02-25T10:40:40.556Z,3.97
2023-02-25T10:43:20.115Z,2.13
2023-02-25T10:45:49.570Z,2.90
2023-02-25T10:48:23.716Z,3.27
2023-02-25T10:51:05.778Z,2.90
2023-02-25T10:53:34.367Z,2.40
2023-02-25T10:56:02.823Z,2.57
2023-02-25T10:58:35.488Z,2.83
2023-02-25T11:01:23.427Z,1.80
2023-02-25T11:04:17.752Z,1.77
2023-02-25T11:06:45.050Z,3.13
2023-02-25T11:09:35.427Z,2.13
2023-02-25T11:12:07.590Z,2.00
2023-02-25T11:14:39.669Z,3.47
2023-02-25T11:17:14.511Z,4.20
2023-02-25T11:19:47.031Z,6.93
2023-02-25T11:22:20.216Z,1.43
2023-02-25T11:24:59.421Z,2.53
2023-02-25T11:27:30.726Z,3.00
2023-02-25T11:30:04.971Z,3.50
2023-02-25T11:32:33.532Z,2.13
2023-02-25T11:35:11.296Z,4.07
2023-02-25T11:37:45.396Z,2.03
2023-02-25T11:40:33.786Z,2.00
2023-02-25T11:43:06.122Z,4.03
2023-02-25T11:45:35.502Z,2.20
2023-02-25T11:48:05.479Z,2.17
2023-02-25T11:50:51.584Z,2.47
2023-02-25T11:53:27.180Z,3.30
2023-02-25T11:56:18.315Z,5.40
2023-02-25T11:58:52.159Z,3.60
2023-02-25T12:01:42.295Z,3.57
2023-02-25T12:04:27.017Z,2.37
2023-02-25T12:07:42.991Z,2.07
2023-02-25T12:10:51.628Z,2.27
2023-02-25T12:13:46.671Z,4.57
2023-02-25T12:16:43.928Z,3.97
2023-02-25T12:19:44.579Z,2.47
2023-02-25T12:22:27.170Z,2.33
2023-02-25T12:25:14.982Z,3.83
2023-02-25T12:27:44.456Z,3.17
2023-02-25T12:30:33.785Z,1.97
2023-02-25T12:33:14.688Z,1.50
2023-02-25T12:35:50.115Z,2.20
2023-02-25T12:39:03.162Z,4.33
2023-02-25T12:41:38.616Z,6.97
2023-02-25T12:44:33.442Z,5.40
2023-02-25T12:47:18.894Z,2.83
2023-02-25T12:50:01.467Z,1.90
2023-02-25T12:52:57.805Z,5.80
2023-02-25T12:55:31.136Z,3.27
2023-02-25T12:58:16.529Z,3.10
2023-02-25T13:00:57.250Z,4.90
2023-02-25T13:03:41.498Z,2.50
2023-02-25T13:06:39.107Z,5.17
2023-02-25T13:09:23.664Z,2.63
2023-02-25T13:12:17.753Z,2.50
2023-02-25T13:14:57.483Z,1.30
2023-02-25T13:17:56.980Z,2.23
2023-02-25T13:20:36.659Z,2.17
2023-02-25T13:23:29.953Z,1.27
2023-02-25T13:26:08.605Z,4.43
2023-02-25T13:29:02.341Z,3.37
2023-02-25T13:31:51.433Z,6.40
2023-02-25T13:34:30.014Z,4.10
2023-02-25T13:37:10.322Z,3.50
2023-02-25T13:39:50.065Z,5.23
2023-02-25T13:42:46.034Z,5.10
2023-02-25T13:45:33.577Z,4.93
2023-02-25T13:48:23.072Z,2.20
2023-02-25T13:51:26.246Z,4.80
2023-02-25T13:54:46.080Z,1.30
2023-02-25T13:57:55.009Z,4.93
2023-02-25T14:00:37.832Z,2.57
2023-02-25T14:03:47.961Z,1.80
2023-02-25T14:06:25.894Z,4.30
2023-02-25T14:09:19.894Z,2.70
2023-02-25T14:11:57.746Z,2.10
2023-02-25T14:14:55.386Z,3.47
2023-02-25T14:17:37.997Z,2.10
2023-02-25T14:20:20.958Z,2.97
2023-02-25T14:22:56.883Z,2.23
2023-02-25T14:25:50.604Z,3.30
2023-02-25T14:28:51.567Z,4.17
2023-02-25T14:31:25.805Z,3.33
2023-02-25T14:34:09.950Z,3.30
2023-02-25T14:36:49.841Z,2.87
2023-02-25T14:39:21.729Z,2.97
2023-02-25T14:42:05.811Z,3.27
2023-02-25T14:44:53.537Z,3.90
2023-02-25T14:47:34.002Z,4.67
2023-02-25T14:50:10.404Z,3.20
2023-02-25T14:53:16.373Z,5.27
2023-02-25T14:56:01.945Z,5.73
2023-02-25T14:59:11.997Z,3.60
2023-02-25T15:02:00.346Z,4.20
2023-02-25T15:04:52.378Z,4.23
2023-02-25T15:07:40.746Z,3.87
2023-02-25T15:10:29.841Z,3.83
2023-02-25T15:12:59.285Z,4.10
2023-02-25T15:15:35.092Z,3.57
2023-02-25T15:18:28.153Z,5.43
2023-02-25T15:20:55.803Z,2.07
2023-02-25T15:23:42.637Z,4.43
2023-02-25T15:26:23.654Z,4.50
2023-02-25T15:28:52.264Z,3.93
2023-02-25T15:31:29.860Z,3.77
2023-02-25T15:34:28.403Z,3.37
2023-02-25T15:37:18.561Z,2.73
2023-02-25T15:39:44.973Z,2.97
2023-02-25T15:42:12.108Z,1.53
2023-02-25T15:44:41.119Z,3.03
2023-02-25T15:47:22.430Z,3.43
2023-02-25T15:49:49.998Z,3.40
2023-02-25T15:52:57.123Z,3.80
2023-02-25T15:55:44.031Z,4.27
2023-02-25T15:58:25.792Z,2.23
2023-02-25T16:00:53.804Z,3.60
2023-02-25T16:03:34.768Z,4.60
2023-02-25T16:06:23.164Z,3.57
2023-02-25T16:09:03.392Z,3.53
2023-02-25T16:11:38.150Z,4.47
2023-02-25T16:14:12.280Z,5.77
2023-02-25T16:16:49.226Z,3.23
2023-02-25T16:19:18.903Z,6.23
2023-02-25T16:21:48.372Z,5.03
2023-02-25T16:24:16.044Z,3.87
2023-02-25T16:27:00.161Z,3.63
2023-02-25T16:29:48.446Z,5.20
2023-02-25T16:32:36.236Z,4.63
2023-02-25T16:35:13.726Z,4.77
2023-02-25T16:37:58.389Z,7.10
2023-02-25T16:40:29.778Z,5.83
2023-02-25T16:42:58.701Z,5.27
2023-02-25T16:45:32.021Z,4.83
2023-02-25T16:48:06.977Z,4.33
2023-02-25T16:50:36.117Z,6.03
2023-02-25T16:53:04.058Z,5.00
2023-02-25T16:55:39.189Z,7.67
2023-02-25T16:58:20.376Z,2.57
2023-02-25T17:00:53.179Z,6.83
2023-02-25T17:03:21.324Z,4.50
2023-02-25T17:06:14.872Z,3.33
2023-02-25T17:08:46.365Z,8.23
2023-02-25T17:11:17.027Z,2.80
2023-02-25T17:13:45.333Z,5.57
2023-02-25T17:16:41.037Z,7.93
2023-02-25T17:19:09.921Z,5.40
2023-02-25T17:21:39.318Z,7.10
2023-02-25T17:24:11.719Z,6.27
2023-02-25T17:26:43.804Z,5.37
2023-02-25T17:29:12.679Z,6.67
2023-02-25T17:31:52.112Z,6.50
2023-02-25T17:34:27.187Z,3.93
2023-02-25T17:36:55.620Z,6.67
2023-02-25T17:39:22.583Z,3.80
2023-02-25T17:41:49.720Z,4.03
2023-02-25T17:44:44.625Z,4.90
2023-02-25T17:47:18.939Z,6.03
2023-02-25T17:49:45.576Z,4.17
2023-02-25T17:52:22.718Z,5.70
2023-02-25T17:54:58.413Z,5.07
2023-02-25T17:57:28.393Z,7.13
2023-02-25T18:00:00.381Z,6.63
2023-02-25T18:02:36.839Z,5.43
2023-02-25T18:05:12.818Z,7.77
2023-02-25T18:07:43.775Z,6.57
2023-02-25T18:10:25.737Z,3.83
2023-02-25T18:12:54.277Z,5.63
2023-02-25T18:15:24.089Z,10.03
2023-02-25T18:17:54.038Z,10.13
2023-02-25T18:20:32.265Z,7.43
2023-02-25T18:23:28.227Z,8.87
2023-02-25T18:26:27.129Z,7.00
2023-02-25T18:28:57.584Z,7.43
2023-02-25T18:31:24.100Z,7.03
2023-02-25T18:33:52.068Z,11.30
2023-02-25T18:36:27.581Z,20.73
2023-02-25T18:39:04.914Z,5.83
2023-02-25T18:41:33.706Z,13.57
2023-02-25T18:44:01.480Z,3.83
2023-02-25T18:46:28.787Z,8.23
2023-02-25T18:48:55.292Z,5.77
2023-02-25T18:51:21.693Z,5.77
2023-02-25T18:53:48.176Z,4.43
2023-02-25T18:56:17.964Z,5.47
2023-02-25T18:58:45.291Z,5.00
2023-02-25T19:01:23.962Z,6.53
2023-02-25T19:03:51.339Z,5.33
2023-02-25T19:06:18.397Z,5.07
2023-02-25T19:08:45.125Z,4.83
2023-02-25T19:11:22.547Z,4.03
2023-02-25T19:13:49.212Z,4.33
2023-02-25T19:16:16.920Z,6.63
2023-02-25T19:18:43.438Z,4.37
2023-02-25T19:21:14.298Z,6.13
2023-02-25T19:23:40.818Z,6.63
2023-02-25T19:26:07.961Z,10.63
2023-02-25T19:28:34.448Z,8.90
2023-02-25T19:31:02.051Z,8.07
2023-02-25T19:33:29.141Z,4.03
2023-02-25T19:35:56.088Z,6.57
2023-02-25T19:38:22.516Z,5.47
2023-02-25T19:40:49.423Z,9.90
2023-02-25T19:43:17.406Z,5.80
2023-02-25T19:45:44.004Z,6.77
2023-02-25T19:48:10.851Z,5.90
2023-02-25T19:50:40.624Z,6.07
2023-02-25T19:53:07.068Z,5.97
2023-02-25T19:55:34.015Z,4.07
2023-02-25T19:58:00.533Z,4.83
2023-02-25T20:00:27.084Z,6.83
2023-02-25T20:02:54.549Z,5.60
2023-02-25T20:05:22.517Z,5.83
2023-02-25T20:07:49.514Z,4.57
2023-02-25T20:10:16.302Z,4.53
2023-02-25T20:12:44.993Z,4.73
2023-02-25T20:15:13.623Z,7.13
2023-02-25T20:17:42.044Z,6.30
2023-02-25T20:20:10.941Z,7.67
2023-02-25T20:22:38.946Z,5.87
2023-02-25T20:25:06.927Z,5.10
2023-02-25T20:27:36.937Z,6.50
2023-02-25T20:30:06.779Z,5.33
2023-02-25T20:32:33.841Z,4.03
2023-02-25T20:35:00.572Z,4.93
2023-02-25T20:37:33.813Z,5.17
2023-02-25T20:40:00.527Z,5.20
2023-02-25T20:42:30.471Z,7.10
2023-02-25T20:44:59.080Z,10.20
2023-02-25T20:47:31.180Z,7.83
2023-02-25T20:49:58.529Z,6.50
2023-02-25T20:52:29.237Z,4.43
2023-02-25T20:54:56.277Z,5.90
2023-02-25T20:57:24.626Z,4.90
2023-02-25T20:59:51.420Z,3.93
2023-02-25T21:02:18.235Z,4.13
2023-02-25T21:04:45.319Z,2.97
2023-02-25T21:07:12.071Z,4.63
2023-02-25T21:09:38.900Z,4.23
2023-02-25T21:12:06.299Z,6.23
2023-02-25T21:14:32.827Z,6.60
2023-02-25T21:17:00.114Z,3.87
2023-02-25T21:19:28.156Z,3.37
2023-02-25T21:21:55.341Z,6.27
2023-02-25T21:24:21.922Z,4.53
2023-02-25T21:26:48.310Z,3.80
2023-02-25T21:29:14.947Z,5.60
2023-02-25T21:31:42.007Z,2.33
2023-02-25T21:34:11.621Z,5.67
2023-02-25T21:36:38.858Z,2.77
2023-02-25T21:39:06.922Z,3.70
2023-02-25T21:41:33.809Z,4.10
2023-02-25T21:44:00.357Z,3.70
2023-02-25T21:46:28.648Z,4.73
2023-02-25T21:48:56.190Z,3.67
2023-02-25T21:51:24.963Z,3.73
2023-02-25T21:54:00.702Z,3.57
2023-02-25T21:56:28.617Z,2.77
2023-02-25T21:58:57.633Z,4.20
2023-02-25T22:01:29.894Z,2.77
2023-02-25T22:03:56.514Z,5.13
2023-02-25T22:06:24.520Z,4.87
2023-02-25T22:08:52.298Z,3.27
2023-02-25T22:11:22.371Z,2.47
2023-02-25T22:13:50.526Z,3.57
2023-02-25T22:16:17.261Z,3.87
2023-02-25T22:18:44.437Z,13.37
2023-02-25T22:21:25.803Z,13.63
2023-02-25T22:23:54.714Z,4.27
2023-02-25T22:26:25.088Z,5.50
2023-02-25T22:28:56.464Z,5.47
2023-02-25T22:31:24.191Z,20.17
2023-02-25T22:33:51.128Z,9.07
2023-02-25T22:36:19.195Z,5.80
2023-02-25T22:38:47.698Z,3.87
2023-02-25T22:41:17.379Z,2.80
2023-02-25T22:43:44.210Z,3.87
2023-02-25T22:46:16.578Z,3.17
2023-02-25T22:48:45.770Z,3.33
2023-02-25T22:51:13.786Z,3.97
2023-02-25T22:53:41.013Z,4.07
2023-02-25T22:56:09.732Z,4.90
2023-02-25T22:58:38.708Z,3.90
2023-02-25T23:01:05.447Z,6.17
2023-02-25T23:03:31.900Z,5.20
2023-02-25T23:05:58.776Z,2.87
2023-02-25T23:08:25.268Z,3.90
2023-02-25T23:10:51.757Z,3.87
2023-02-25T23:13:46.665Z,3.60
2023-02-25T23:16:25.437Z,4.73
2023-02-25T23:18:52.140Z,6.53
2023-02-25T23:21:20.198Z,2.80
2023-02-25T23:23:48.582Z,3.53
2023-02-25T23:26:17.286Z,4.97
2023-02-25T23:28:44.073Z,5.17
2023-02-25T23:31:21.378Z,2.37
2023-02-25T23:33:48.367Z,3.20
2023-02-25T23:36:15.683Z,2.93
2023-02-25T23:38:42.113Z,5.83
2023-02-25T23:41:08.539Z,5.87
2023-02-25T23:43:35.293Z,2.67
2023-02-25T23:46:05.621Z,4.23
2023-02-25T23:48:32.637Z,3.83
2023-02-25T23:51:06.786Z,4.43
2023-02-25T23:53:33.929Z,4.77
2023-02-25T23:56:06.341Z,4.73
2023-02-25T23:58:32.919Z,5.03
